Weather at Katemo Airport

Public forecast

Using degrees Celsius for public forecast. Weather courtesy of forecast.io.

Closest aviation weather report (METAR) to Katemo Airport

Report is more than 6 hours old.

Closest report is Kariba International Airport, 76.3 nm (141.4 km) SW. Retrieved 2020/09/19 06:00 UTC (4 days ago):

FVKB 190600Z 11004KT CAVOK 28/18 Q1018 NOSIG

Closest aviation forecast (TAF) to Katemo Airport

Forecast is more than 12 hours old.

Closest forecast is Jeki Airport, 11.9 nm (22.0 km) W. Retrieved 2020/09/21 18:00 UTC (1 day ago):

TAF FLJK 211600Z 2118/2224 14005KT CAVOK BECMG 2204/2206 08005G15KT 8000 NSC BECMG 2216/2218 09005KT CAVOK BECMG 2219/2223 07010KT 8000 SCT020